Terminal Aerodrome Forecast
Issued by NWS

Current Version | Previous Version | Text Only | Print | Product List | Glossary On
Versions: 1 2 3 4 5 6 7 8 9 10 11 12 13
000
FTUS46 KSGX 231120
TAFONT
TAF
KONT 231120Z 2312/2418 VRB05KT P6SM VCSH BKN025 OVC035
     FM231600 VRB05KT P6SM SCT025 BKN035
     FM232200 25011G17KT P6SM FEW025 SCT040
     FM240500 VRB04KT P6SM SCT025 BKN040
     FM240900 VRB04KT P6SM BKN025 OVC040=

USA.gov is the U.S. government's official web portal to all federal, state and local government web resources and services.